createdAt,value
2022-08-20T00:02:16.639Z,23.60
2022-08-20T00:04:45.676Z,23.70
2022-08-20T00:07:15.864Z,23.70
2022-08-20T00:09:46.222Z,23.60
2022-08-20T00:12:18.485Z,23.60
2022-08-20T00:14:46.901Z,23.70
2022-08-20T00:17:15.683Z,23.60
2022-08-20T00:19:43.973Z,23.60
2022-08-20T00:22:13.666Z,23.60
2022-08-20T00:24:42.009Z,23.60
2022-08-20T00:27:11.712Z,23.60
2022-08-20T00:29:40.117Z,23.70
2022-08-20T00:32:08.712Z,23.60
2022-08-20T00:34:37.016Z,23.50
2022-08-20T00:37:05.747Z,23.50
2022-08-20T00:39:34.135Z,23.50
2022-08-20T00:42:02.677Z,23.60
2022-08-20T00:44:32.540Z,23.50
2022-08-20T00:47:01.271Z,23.40
2022-08-20T00:49:33.487Z,23.40
2022-08-20T00:52:08.755Z,23.40
2022-08-20T00:54:43.753Z,23.30
2022-08-20T00:57:19.684Z,23.40
2022-08-20T00:59:51.304Z,23.20
2022-08-20T01:02:22.952Z,23.30
2022-08-20T01:04:52.561Z,23.20
2022-08-20T01:07:22.416Z,23.20
2022-08-20T01:09:59.039Z,23.00
2022-08-20T01:12:29.373Z,23.00
2022-08-20T01:15:01.797Z,23.00
2022-08-20T01:17:34.073Z,22.90
2022-08-20T01:20:08.119Z,22.90
2022-08-20T01:23:01.060Z,22.90
2022-08-20T01:25:45.581Z,22.80
2022-08-20T01:28:16.100Z,22.80
2022-08-20T01:30:45.248Z,22.80
2022-08-20T01:33:14.044Z,22.80
2022-08-20T01:35:44.504Z,22.70
2022-08-20T01:38:13.687Z,22.70
2022-08-20T01:41:15.414Z,22.70
2022-08-20T01:43:44.101Z,22.70
2022-08-20T01:46:13.717Z,22.60
2022-08-20T01:48:43.695Z,22.60
2022-08-20T01:51:16.866Z,22.60
2022-08-20T01:53:48.425Z,22.50
2022-08-20T01:56:21.621Z,22.40
2022-08-20T01:58:56.234Z,22.40
2022-08-20T02:01:33.087Z,22.50
2022-08-20T02:04:15.254Z,22.40
2022-08-20T02:06:56.751Z,22.40
2022-08-20T02:09:27.761Z,22.30
2022-08-20T02:11:58.534Z,22.40
2022-08-20T02:14:28.732Z,22.30
2022-08-20T02:17:00.848Z,22.30
2022-08-20T02:19:33.859Z,22.30
2022-08-20T02:22:12.912Z,22.20
2022-08-20T02:24:41.253Z,22.20
2022-08-20T02:27:10.978Z,22.20
2022-08-20T02:29:39.686Z,22.20
2022-08-20T02:32:24.694Z,22.30
2022-08-20T02:34:57.636Z,22.10
2022-08-20T02:37:26.115Z,22.10
2022-08-20T02:39:54.450Z,22.10
2022-08-20T02:42:24.126Z,22.10
2022-08-20T02:44:54.061Z,22.00
2022-08-20T02:47:22.491Z,22.00
2022-08-20T02:49:50.796Z,22.20
2022-08-20T02:52:19.210Z,22.00
2022-08-20T02:54:48.059Z,22.00
2022-08-20T02:57:20.432Z,22.00
2022-08-20T02:59:52.258Z,21.90
2022-08-20T03:02:21.299Z,21.90
2022-08-20T03:04:49.655Z,21.90
2022-08-20T03:07:18.804Z,21.90
2022-08-20T03:09:47.102Z,22.00
2022-08-20T03:12:15.555Z,22.00
2022-08-20T03:14:43.849Z,22.00
2022-08-20T03:17:13.534Z,21.90
2022-08-20T03:19:41.904Z,21.90
2022-08-20T03:22:10.282Z,22.00
2022-08-20T03:24:38.959Z,21.90
2022-08-20T03:27:07.415Z,21.90
2022-08-20T03:29:36.980Z,21.90
2022-08-20T03:32:07.794Z,22.10
2022-08-20T03:34:37.732Z,21.90
2022-08-20T03:37:06.356Z,22.00
2022-08-20T03:39:34.739Z,21.90
2022-08-20T03:42:03.191Z,21.90
2022-08-20T03:44:31.589Z,21.90
2022-08-20T03:46:59.928Z,21.90
2022-08-20T03:49:28.434Z,21.90
2022-08-20T03:51:58.694Z,21.90
2022-08-20T03:54:29.118Z,21.90
2022-08-20T03:57:02.959Z,22.00
2022-08-20T03:59:40.607Z,21.90
2022-08-20T04:02:09.227Z,21.80
2022-08-20T04:04:37.921Z,21.80
2022-08-20T04:07:12.908Z,21.90
2022-08-20T04:09:41.282Z,21.80
2022-08-20T04:12:12.424Z,22.00
2022-08-20T04:14:41.051Z,21.80
2022-08-20T04:17:11.771Z,22.00
2022-08-20T04:19:40.906Z,21.80
2022-08-20T04:22:09.278Z,21.90
2022-08-20T04:24:38.997Z,21.70
2022-08-20T04:27:08.257Z,21.80
2022-08-20T04:29:37.668Z,21.80
2022-08-20T04:32:07.364Z,21.90
2022-08-20T04:34:36.970Z,21.80
2022-08-20T04:37:05.986Z,21.80
2022-08-20T04:40:06.845Z,21.80
2022-08-20T04:42:40.093Z,21.80
2022-08-20T04:45:12.647Z,21.90
2022-08-20T04:47:41.754Z,21.70
2022-08-20T04:50:11.855Z,21.70
2022-08-20T04:52:40.438Z,21.60
2022-08-20T04:55:11.992Z,21.60
2022-08-20T04:57:41.175Z,21.60
2022-08-20T05:00:14.326Z,21.50
2022-08-20T05:02:43.100Z,21.50
2022-08-20T05:05:13.059Z,21.50
2022-08-20T05:07:46.642Z,21.70
2022-08-20T05:10:19.515Z,21.40
2022-08-20T05:12:56.720Z,21.40
2022-08-20T05:15:26.380Z,21.30
2022-08-20T05:18:00.492Z,21.40
2022-08-20T05:20:31.378Z,21.30
2022-08-20T05:23:00.961Z,21.30
2022-08-20T05:25:31.837Z,21.50
2022-08-20T05:28:01.680Z,21.40
2022-08-20T05:30:33.346Z,21.30
2022-08-20T05:33:03.474Z,21.30
2022-08-20T05:35:34.353Z,21.30
2022-08-20T05:38:03.559Z,21.30
2022-08-20T05:40:34.316Z,21.30
2022-08-20T05:43:04.368Z,21.30
2022-08-20T05:45:33.720Z,21.30
2022-08-20T05:48:05.953Z,21.30
2022-08-20T05:50:34.471Z,21.40
2022-08-20T05:53:03.051Z,21.30
2022-08-20T05:55:32.979Z,21.50
2022-08-20T05:58:03.628Z,21.30
2022-08-20T06:00:34.376Z,21.30
2022-08-20T06:03:20.345Z,21.30
2022-08-20T06:05:48.955Z,21.20
2022-08-20T06:08:17.951Z,21.20
2022-08-20T06:10:47.915Z,21.30
2022-08-20T06:13:16.255Z,21.10
2022-08-20T06:15:44.655Z,21.20
2022-08-20T06:18:28.071Z,21.10
2022-08-20T06:20:57.961Z,21.10
2022-08-20T06:23:26.386Z,21.10
2022-08-20T06:25:56.144Z,21.10
2022-08-20T06:28:24.544Z,21.10
2022-08-20T06:30:53.376Z,21.10
2022-08-20T06:33:21.726Z,21.10
2022-08-20T06:35:50.124Z,21.10
2022-08-20T06:38:18.593Z,21.10
2022-08-20T06:40:46.896Z,21.30
2022-08-20T06:43:16.636Z,21.10
2022-08-20T06:45:45.827Z,21.10
2022-08-20T06:48:15.868Z,21.10
2022-08-20T06:50:48.674Z,21.10
2022-08-20T06:53:19.186Z,21.10
2022-08-20T06:55:52.567Z,21.20
2022-08-20T06:58:36.632Z,21.20
2022-08-20T07:01:09.918Z,21.20
2022-08-20T07:03:42.235Z,21.30
2022-08-20T07:06:25.653Z,21.30
2022-08-20T07:08:54.505Z,21.30
2022-08-20T07:11:27.773Z,21.40
2022-08-20T07:13:59.395Z,21.30
2022-08-20T07:16:28.155Z,21.40
2022-08-20T07:18:58.283Z,21.40
2022-08-20T07:21:26.772Z,21.50
2022-08-20T07:23:55.080Z,21.50
2022-08-20T07:26:24.552Z,21.50
2022-08-20T07:28:52.918Z,21.50
2022-08-20T07:31:40.244Z,21.50
2022-08-20T07:34:11.772Z,21.50
2022-08-20T07:36:40.379Z,21.60
2022-08-20T07:39:08.727Z,21.50
2022-08-20T07:41:37.832Z,21.50
2022-08-20T07:44:06.388Z,21.50
2022-08-20T07:46:36.468Z,21.70
2022-08-20T07:49:05.418Z,21.70
2022-08-20T07:51:33.757Z,21.60
2022-08-20T07:54:02.212Z,21.50
2022-08-20T07:56:30.590Z,21.60
2022-08-20T07:59:01.637Z,21.60
2022-08-20T08:01:32.916Z,21.60
2022-08-20T08:04:02.714Z,21.60
2022-08-20T08:06:32.565Z,21.60
2022-08-20T08:09:05.155Z,21.60
2022-08-20T08:11:37.841Z,21.70
2022-08-20T08:14:09.671Z,21.70
2022-08-20T08:16:39.255Z,21.90
2022-08-20T08:19:12.039Z,21.70
2022-08-20T08:21:41.240Z,21.80
2022-08-20T08:24:12.670Z,21.70
2022-08-20T08:26:42.825Z,21.80
2022-08-20T08:29:12.075Z,21.80
2022-08-20T08:31:41.066Z,21.80
2022-08-20T08:34:11.511Z,21.80
2022-08-20T08:36:40.311Z,21.90
2022-08-20T08:39:08.624Z,21.90
2022-08-20T08:41:40.857Z,21.90
2022-08-20T08:44:13.406Z,22.00
2022-08-20T08:46:46.256Z,22.00
2022-08-20T08:49:20.023Z,22.10
2022-08-20T08:51:52.583Z,22.10
2022-08-20T08:54:24.833Z,22.20
2022-08-20T08:56:54.285Z,22.20
2022-08-20T08:59:24.528Z,22.30
2022-08-20T09:01:57.590Z,22.30
2022-08-20T09:04:34.700Z,22.30
2022-08-20T09:07:05.533Z,22.40
2022-08-20T09:09:37.932Z,22.40
2022-08-20T09:12:09.791Z,22.50
2022-08-20T09:14:39.017Z,22.50
2022-08-20T09:17:07.953Z,22.70
2022-08-20T09:19:37.589Z,22.60
2022-08-20T09:22:09.649Z,22.60
2022-08-20T09:24:38.648Z,22.60
2022-08-20T09:27:27.681Z,22.80
2022-08-20T09:29:56.010Z,22.70
2022-08-20T09:32:26.282Z,22.70
2022-08-20T09:34:57.121Z,22.70
2022-08-20T09:37:28.058Z,22.70
2022-08-20T09:39:57.059Z,22.70
2022-08-20T09:42:29.141Z,22.70
2022-08-20T09:44:58.478Z,22.70
2022-08-20T09:47:27.429Z,22.70
2022-08-20T09:49:57.189Z,22.70
2022-08-20T09:52:29.307Z,22.70
2022-08-20T09:55:01.700Z,22.70
2022-08-20T09:57:32.318Z,22.70
2022-08-20T10:00:05.540Z,22.80
2022-08-20T10:02:40.539Z,22.80
2022-08-20T10:05:12.385Z,22.80
2022-08-20T10:07:42.516Z,22.80
2022-08-20T10:10:15.332Z,22.90
2022-08-20T10:12:44.009Z,22.80
2022-08-20T10:15:12.795Z,22.80
2022-08-20T10:17:43.341Z,22.90
2022-08-20T10:20:15.717Z,22.90
2022-08-20T10:22:44.081Z,22.90
2022-08-20T10:25:13.588Z,23.00
2022-08-20T10:27:41.940Z,23.10
2022-08-20T10:30:12.053Z,23.00
2022-08-20T10:32:40.352Z,23.00
2022-08-20T10:35:09.533Z,23.00
2022-08-20T10:37:39.297Z,23.00
2022-08-20T10:40:09.670Z,23.00
2022-08-20T10:42:42.444Z,23.00
2022-08-20T10:45:12.331Z,23.10
2022-08-20T10:47:41.003Z,23.10
2022-08-20T10:50:12.787Z,23.20
2022-08-20T10:52:42.606Z,23.10
2022-08-20T10:55:11.817Z,23.10
2022-08-20T10:57:43.616Z,23.20
2022-08-20T11:00:17.332Z,23.20
2022-08-20T11:02:45.613Z,23.20
2022-08-20T11:05:14.191Z,23.40
2022-08-20T11:07:54.252Z,23.30
2022-08-20T11:10:27.703Z,23.30
2022-08-20T11:12:56.591Z,23.30
2022-08-20T11:15:25.392Z,23.40
2022-08-20T11:17:54.201Z,23.60
2022-08-20T11:20:26.433Z,23.40
2022-08-20T11:22:57.065Z,23.40
2022-08-20T11:25:26.230Z,23.40
2022-08-20T11:27:57.168Z,23.60
2022-08-20T11:30:29.748Z,23.50
2022-08-20T11:32:58.906Z,23.60
2022-08-20T11:35:49.137Z,23.60
2022-08-20T11:38:19.488Z,23.60
2022-08-20T11:40:48.180Z,23.60
2022-08-20T11:43:18.065Z,23.70
2022-08-20T11:45:49.737Z,23.80
2022-08-20T11:48:18.829Z,23.80
2022-08-20T11:50:47.828Z,23.90
2022-08-20T11:53:17.785Z,23.80
2022-08-20T11:55:46.318Z,23.90
2022-08-20T11:58:16.145Z,23.90
2022-08-20T12:00:44.558Z,24.10
2022-08-20T12:03:13.290Z,24.00
2022-08-20T12:05:45.676Z,24.00
2022-08-20T12:08:26.811Z,24.00
2022-08-20T12:10:57.521Z,24.00
2022-08-20T12:13:47.568Z,24.00
2022-08-20T12:16:17.287Z,24.00
2022-08-20T12:18:45.780Z,24.00
2022-08-20T12:21:14.359Z,24.00
2022-08-20T12:23:44.011Z,24.00
2022-08-20T12:26:12.455Z,24.00
2022-08-20T12:28:40.838Z,23.90
2022-08-20T12:31:09.291Z,24.00
2022-08-20T12:33:37.683Z,24.00
2022-08-20T12:36:06.422Z,24.00
2022-08-20T12:38:34.751Z,24.00
2022-08-20T12:41:04.484Z,24.00
2022-08-20T12:43:32.793Z,24.00
2022-08-20T12:46:01.117Z,24.20
2022-08-20T12:48:29.514Z,24.10
2022-08-20T12:50:57.850Z,24.30
2022-08-20T12:53:26.207Z,24.20
2022-08-20T12:55:54.583Z,24.20
2022-08-20T12:58:24.745Z,24.20
2022-08-20T13:00:53.285Z,24.20
2022-08-20T13:03:21.789Z,24.20
2022-08-20T13:05:50.797Z,24.20
2022-08-20T13:08:19.808Z,24.20
2022-08-20T13:10:48.839Z,24.20
2022-08-20T13:13:20.810Z,24.20
2022-08-20T13:15:52.068Z,24.20
2022-08-20T13:18:21.173Z,24.30
2022-08-20T13:20:50.412Z,24.30
2022-08-20T13:23:18.949Z,24.30
2022-08-20T13:25:47.576Z,24.30
2022-08-20T13:28:16.016Z,24.20
2022-08-20T13:30:44.339Z,24.30
2022-08-20T13:33:13.989Z,24.40
2022-08-20T13:36:02.756Z,24.20
2022-08-20T13:38:32.257Z,24.20
2022-08-20T13:41:00.623Z,24.20
2022-08-20T13:43:28.935Z,24.20
2022-08-20T13:45:57.312Z,24.20
2022-08-20T13:48:27.055Z,24.10
2022-08-20T13:50:55.378Z,24.10
2022-08-20T13:53:23.856Z,24.00
2022-08-20T13:55:52.490Z,24.00
2022-08-20T13:58:22.808Z,24.00
2022-08-20T14:00:51.960Z,23.90
2022-08-20T14:03:25.454Z,23.90
2022-08-20T14:05:55.880Z,23.80
2022-08-20T14:08:25.550Z,23.80
2022-08-20T14:10:54.065Z,23.80
2022-08-20T14:13:24.684Z,23.70
2022-08-20T14:15:54.195Z,23.70
2022-08-20T14:18:22.631Z,23.60
2022-08-20T14:20:51.371Z,23.60
2022-08-20T14:23:21.168Z,23.60
2022-08-20T14:25:51.022Z,23.60
2022-08-20T14:28:22.628Z,23.50
2022-08-20T14:30:53.727Z,23.50
2022-08-20T14:33:23.708Z,23.60
2022-08-20T14:35:53.038Z,23.50
2022-08-20T14:38:23.409Z,23.50
2022-08-20T14:40:51.912Z,23.50
2022-08-20T14:43:20.747Z,23.40
2022-08-20T14:45:49.200Z,23.40
2022-08-20T14:48:17.593Z,23.40
2022-08-20T14:50:46.137Z,23.40
2022-08-20T14:53:14.450Z,23.40
2022-08-20T14:55:44.247Z,23.40
2022-08-20T14:58:14.033Z,23.40
2022-08-20T15:00:44.293Z,23.40
2022-08-20T15:03:13.439Z,23.40
2022-08-20T15:05:41.864Z,23.40
2022-08-20T15:08:11.025Z,23.40
2022-08-20T15:10:39.933Z,23.40
2022-08-20T15:13:10.301Z,23.40
2022-08-20T15:15:39.508Z,23.40
2022-08-20T15:18:08.039Z,23.50
2022-08-20T15:20:37.866Z,23.50
2022-08-20T15:23:06.648Z,23.50
2022-08-20T15:25:38.425Z,23.50
2022-08-20T15:28:11.019Z,23.50
2022-08-20T15:30:41.739Z,23.60
2022-08-20T15:33:11.406Z,23.60
2022-08-20T15:35:40.576Z,23.60
2022-08-20T15:38:08.935Z,23.60
2022-08-20T15:40:37.889Z,23.60
2022-08-20T15:43:06.865Z,23.60
2022-08-20T15:45:37.305Z,23.60
2022-08-20T15:48:13.689Z,23.70
2022-08-20T15:51:22.094Z,23.60
2022-08-20T15:54:00.632Z,23.60
2022-08-20T15:56:49.428Z,23.60
2022-08-20T15:59:36.779Z,23.60
2022-08-20T16:02:25.728Z,23.60
2022-08-20T16:05:09.885Z,23.70
2022-08-20T16:07:53.668Z,23.60
2022-08-20T16:10:29.120Z,23.60
2022-08-20T16:13:02.431Z,23.60
2022-08-20T16:15:34.358Z,23.70
2022-08-20T16:18:09.729Z,23.60
2022-08-20T16:20:44.149Z,23.80
2022-08-20T16:23:20.453Z,23.70
2022-08-20T16:26:15.455Z,23.70
2022-08-20T16:28:54.260Z,23.70
2022-08-20T16:31:31.237Z,23.70
2022-08-20T16:34:34.073Z,23.70
2022-08-20T16:37:10.965Z,23.70
2022-08-20T16:39:49.631Z,23.80
2022-08-20T16:42:22.509Z,23.90
2022-08-20T16:44:54.645Z,23.80
2022-08-20T16:47:28.339Z,23.80
2022-08-20T16:50:04.423Z,23.80
2022-08-20T16:52:33.086Z,23.80
2022-08-20T16:55:01.530Z,23.80
2022-08-20T16:57:31.250Z,23.80
2022-08-20T17:00:09.427Z,23.80
2022-08-20T17:02:50.641Z,23.80
2022-08-20T17:05:21.491Z,23.90
2022-08-20T17:07:53.251Z,23.80
2022-08-20T17:10:27.324Z,23.70
2022-08-20T17:13:00.183Z,23.80
2022-08-20T17:15:32.229Z,23.80
2022-08-20T17:18:22.404Z,23.70
2022-08-20T17:20:52.899Z,23.70
2022-08-20T17:23:22.822Z,23.70
2022-08-20T17:26:00.664Z,23.70
2022-08-20T17:28:35.047Z,23.70
2022-08-20T17:31:03.932Z,23.70
2022-08-20T17:33:36.641Z,23.60
2022-08-20T17:36:12.159Z,23.60
2022-08-20T17:38:48.146Z,23.60
2022-08-20T17:41:23.294Z,23.60
2022-08-20T17:43:59.868Z,23.60
2022-08-20T17:46:30.860Z,23.60
2022-08-20T17:49:01.464Z,23.60
2022-08-20T17:51:50.250Z,23.60
2022-08-20T17:54:30.243Z,23.60
2022-08-20T17:57:05.065Z,23.60
2022-08-20T18:00:01.604Z,23.60
2022-08-20T18:02:32.012Z,23.50
2022-08-20T18:05:00.479Z,23.50
2022-08-20T18:07:40.631Z,23.50
2022-08-20T18:10:15.134Z,23.50
2022-08-20T18:12:53.971Z,23.50
2022-08-20T18:15:26.958Z,23.50
2022-08-20T18:18:23.141Z,23.50
2022-08-20T18:21:16.368Z,23.60
2022-08-20T18:23:50.197Z,23.40
2022-08-20T18:26:25.378Z,23.40
2022-08-20T18:28:59.076Z,23.40
2022-08-20T18:31:31.571Z,23.50
2022-08-20T18:34:11.331Z,23.40
2022-08-20T18:36:39.890Z,23.40
2022-08-20T18:39:23.757Z,23.40
2022-08-20T18:42:01.543Z,23.40
2022-08-20T18:44:40.105Z,23.30
2022-08-20T18:47:21.632Z,23.30
2022-08-20T18:50:06.438Z,23.30
2022-08-20T18:52:47.883Z,23.30
2022-08-20T18:55:32.810Z,23.30
2022-08-20T18:58:32.338Z,23.30
2022-08-20T19:01:03.679Z,23.30
2022-08-20T19:03:39.729Z,23.20
2022-08-20T19:06:26.967Z,23.20
2022-08-20T19:09:17.416Z,23.20
2022-08-20T19:12:33.422Z,23.20
2022-08-20T19:15:07.284Z,23.20
2022-08-20T19:17:57.004Z,23.20
2022-08-20T19:20:31.904Z,23.20
2022-08-20T19:23:08.946Z,23.10
2022-08-20T19:25:41.281Z,23.10
2022-08-20T19:28:21.995Z,23.10
2022-08-20T19:30:50.727Z,23.10
2022-08-20T19:33:29.747Z,23.10
2022-08-20T19:36:12.756Z,23.10
2022-08-20T19:38:47.153Z,23.10
2022-08-20T19:41:30.931Z,23.10
2022-08-20T19:44:02.632Z,23.00
2022-08-20T19:46:38.807Z,23.10
2022-08-20T19:49:24.715Z,23.10
2022-08-20T19:52:10.442Z,23.10
2022-08-20T19:54:49.897Z,23.00
2022-08-20T19:57:20.818Z,23.00
2022-08-20T19:59:58.356Z,23.00
2022-08-20T20:02:31.353Z,23.00
2022-08-20T20:05:00.507Z,23.00
2022-08-20T20:07:38.661Z,23.00
2022-08-20T20:10:12.544Z,23.00
2022-08-20T20:12:41.548Z,23.00
2022-08-20T20:15:12.251Z,23.00
2022-08-20T20:17:41.887Z,23.00
2022-08-20T20:20:31.120Z,23.00
2022-08-20T20:23:06.595Z,22.90
2022-08-20T20:25:43.488Z,22.90
2022-08-20T20:28:20.557Z,22.90
2022-08-20T20:30:51.416Z,23.10
2022-08-20T20:33:31.823Z,23.00
2022-08-20T20:36:09.053Z,22.90
2022-08-20T20:38:51.931Z,23.00
2022-08-20T20:41:25.896Z,22.90
2022-08-20T20:44:03.254Z,22.90
2022-08-20T20:46:36.693Z,23.00
2022-08-20T20:49:23.344Z,22.90
2022-08-20T20:52:00.559Z,22.90
2022-08-20T20:54:40.596Z,22.90
2022-08-20T20:57:37.731Z,22.90
2022-08-20T21:00:12.661Z,22.90
2022-08-20T21:02:43.749Z,22.90
2022-08-20T21:05:14.870Z,22.90
2022-08-20T21:07:50.285Z,22.90
2022-08-20T21:10:21.172Z,22.90
2022-08-20T21:12:52.915Z,22.90
2022-08-20T21:15:24.186Z,22.80
2022-08-20T21:17:54.625Z,22.90
2022-08-20T21:20:23.493Z,22.90
2022-08-20T21:22:52.458Z,22.90
2022-08-20T21:25:21.746Z,22.80
2022-08-20T21:27:52.917Z,22.90
2022-08-20T21:30:23.240Z,22.90
2022-08-20T21:32:53.470Z,22.90
2022-08-20T21:35:22.537Z,22.90
2022-08-20T21:37:51.454Z,22.80
2022-08-20T21:40:21.778Z,22.80
2022-08-20T21:42:51.251Z,22.90
2022-08-20T21:45:19.999Z,22.80
2022-08-20T21:47:49.988Z,22.80
2022-08-20T21:50:21.767Z,22.80
2022-08-20T21:52:52.504Z,23.00
2022-08-20T21:55:41.469Z,22.80
2022-08-20T21:58:11.193Z,22.80
2022-08-20T22:01:03.810Z,22.80
2022-08-20T22:03:38.548Z,22.80
2022-08-20T22:06:14.645Z,22.80
2022-08-20T22:08:43.789Z,22.80
2022-08-20T22:11:13.126Z,22.80
2022-08-20T22:13:42.791Z,22.80
2022-08-20T22:16:14.257Z,22.80
2022-08-20T22:18:43.178Z,22.80
2022-08-20T22:21:18.180Z,22.80
2022-08-20T22:23:47.253Z,22.80
2022-08-20T22:26:16.463Z,22.80
2022-08-20T22:28:45.264Z,22.70
2022-08-20T22:31:24.837Z,22.80
2022-08-20T22:33:53.455Z,22.80
2022-08-20T22:36:27.718Z,22.70
2022-08-20T22:38:57.334Z,22.80
2022-08-20T22:41:27.959Z,22.70
2022-08-20T22:43:57.526Z,22.70
2022-08-20T22:46:38.225Z,22.70
2022-08-20T22:49:11.549Z,22.70
2022-08-20T22:51:44.459Z,22.70
2022-08-20T22:54:24.150Z,22.70
2022-08-20T22:56:56.816Z,22.70
2022-08-20T22:59:25.863Z,22.70
2022-08-20T23:01:56.061Z,22.60
2022-08-20T23:04:30.972Z,22.70
2022-08-20T23:07:03.012Z,22.70
2022-08-20T23:09:32.128Z,22.60
2022-08-20T23:12:00.962Z,22.60
2022-08-20T23:14:32.370Z,22.70
2022-08-20T23:17:13.096Z,22.60
2022-08-20T23:19:44.098Z,22.60
2022-08-20T23:22:14.810Z,22.60
2022-08-20T23:25:04.694Z,22.80
2022-08-20T23:27:36.906Z,22.60
2022-08-20T23:30:06.395Z,22.60
2022-08-20T23:32:34.781Z,22.60
2022-08-20T23:35:03.120Z,22.80
2022-08-20T23:37:33.816Z,22.60
2022-08-20T23:40:02.192Z,22.60
2022-08-20T23:42:30.566Z,22.60
2022-08-20T23:44:58.863Z,22.70
2022-08-20T23:47:27.585Z,22.60
2022-08-20T23:49:55.906Z,22.60
2022-08-20T23:52:24.271Z,22.60
2022-08-20T23:54:54.054Z,22.60
2022-08-20T23:57:22.427Z,22.70
2022-08-20T23:59:52.906Z,22.60
